sensor_id;sensor_type;location;lat;lon;timestamp;temperature;humidity
12568;DHT22;6349;50.904;6.136;2023-05-10T00:00:25;13.90;99.90
12568;DHT22;6349;50.904;6.136;2023-05-10T00:02:26;13.90;99.90
12568;DHT22;6349;50.904;6.136;2023-05-10T00:04:27;13.90;99.90
12568;DHT22;6349;50.904;6.136;2023-05-10T00:06:29;13.80;99.90
12568;DHT22;6349;50.904;6.136;2023-05-10T00:08:31;13.90;99.90
12568;DHT22;6349;50.904;6.136;2023-05-10T00:10:33;13.80;99.90
12568;DHT22;6349;50.904;6.136;2023-05-10T00:12:33;13.90;99.90
12568;DHT22;6349;50.904;6.136;2023-05-10T00:14:34;13.80;99.90
12568;DHT22;6349;50.904;6.136;2023-05-10T00:16:35;13.90;99.90
12568;DHT22;6349;50.904;6.136;2023-05-10T00:18:36;13.80;99.90
12568;DHT22;6349;50.904;6.136;2023-05-10T00:20:36;13.80;99.90
12568;DHT22;6349;50.904;6.136;2023-05-10T00:22:37;13.80;99.90
12568;DHT22;6349;50.904;6.136;2023-05-10T00:24:37;13.80;99.90
12568;DHT22;6349;50.904;6.136;2023-05-10T00:26:38;13.80;99.90
12568;DHT22;6349;50.904;6.136;2023-05-10T00:28:39;13.80;99.90
12568;DHT22;6349;50.904;6.136;2023-05-10T00:30:39;13.80;99.90
12568;DHT22;6349;50.904;6.136;2023-05-10T00:32:40;13.80;99.90
12568;DHT22;6349;50.904;6.136;2023-05-10T00:34:40;13.70;99.90
12568;DHT22;6349;50.904;6.136;2023-05-10T00:36:42;13.80;99.90
12568;DHT22;6349;50.904;6.136;2023-05-10T00:38:43;13.80;99.90
12568;DHT22;6349;50.904;6.136;2023-05-10T00:40:45;13.80;99.90
12568;DHT22;6349;50.904;6.136;2023-05-10T00:42:45;13.80;99.90
12568;DHT22;6349;50.904;6.136;2023-05-10T00:44:46;13.80;99.90
12568;DHT22;6349;50.904;6.136;2023-05-10T00:46:48;13.80;99.90
12568;DHT22;6349;50.904;6.136;2023-05-10T00:48:50;13.80;99.90
12568;DHT22;6349;50.904;6.136;2023-05-10T00:50:50;13.80;99.90
12568;DHT22;6349;50.904;6.136;2023-05-10T00:52:51;13.70;99.90
12568;DHT22;6349;50.904;6.136;2023-05-10T00:54:52;13.70;99.90
12568;DHT22;6349;50.904;6.136;2023-05-10T00:56:53;13.70;99.90
12568;DHT22;6349;50.904;6.136;2023-05-10T00:58:54;13.70;99.90
12568;DHT22;6349;50.904;6.136;2023-05-10T01:00:55;13.70;99.90
12568;DHT22;6349;50.904;6.136;2023-05-10T01:02:59;13.70;99.90
12568;DHT22;6349;50.904;6.136;2023-05-10T01:05:00;13.70;99.90
12568;DHT22;6349;50.904;6.136;2023-05-10T01:07:03;13.70;99.90
12568;DHT22;6349;50.904;6.136;2023-05-10T01:09:03;13.70;99.90
12568;DHT22;6349;50.904;6.136;2023-05-10T01:11:05;13.70;99.90
12568;DHT22;6349;50.904;6.136;2023-05-10T01:13:06;13.70;99.90
12568;DHT22;6349;50.904;6.136;2023-05-10T01:15:08;13.70;99.90
12568;DHT22;6349;50.904;6.136;2023-05-10T01:17:09;13.70;99.90
12568;DHT22;6349;50.904;6.136;2023-05-10T01:19:20;13.70;99.90
12568;DHT22;6349;50.904;6.136;2023-05-10T01:36:05;13.70;99.90
12568;DHT22;6349;50.904;6.136;2023-05-10T01:38:18;13.70;99.90
12568;DHT22;6349;50.904;6.136;2023-05-10T01:40:36;13.70;99.90
12568;DHT22;6349;50.904;6.136;2023-05-10T01:42:51;13.70;99.90
12568;DHT22;6349;50.904;6.136;2023-05-10T01:45:18;13.70;99.90
12568;DHT22;6349;50.904;6.136;2023-05-10T01:47:37;13.80;99.90
12568;DHT22;6349;50.904;6.136;2023-05-10T01:49:42;13.70;99.90
12568;DHT22;6349;50.904;6.136;2023-05-10T01:51:50;13.70;99.90
12568;DHT22;6349;50.904;6.136;2023-05-10T01:54:01;13.70;99.90
12568;DHT22;6349;50.904;6.136;2023-05-10T01:56:04;13.70;99.90
12568;DHT22;6349;50.904;6.136;2023-05-10T01:58:11;13.70;99.90
12568;DHT22;6349;50.904;6.136;2023-05-10T02:00:14;13.70;99.90
12568;DHT22;6349;50.904;6.136;2023-05-10T02:02:15;13.70;99.90
12568;DHT22;6349;50.904;6.136;2023-05-10T02:04:19;13.70;99.90
12568;DHT22;6349;50.904;6.136;2023-05-10T02:06:22;13.70;99.90
12568;DHT22;6349;50.904;6.136;2023-05-10T02:08:24;13.70;99.90
12568;DHT22;6349;50.904;6.136;2023-05-10T02:10:27;13.70;99.90
12568;DHT22;6349;50.904;6.136;2023-05-10T02:12:31;13.70;99.90
12568;DHT22;6349;50.904;6.136;2023-05-10T02:14:35;13.70;99.90
12568;DHT22;6349;50.904;6.136;2023-05-10T02:16:38;13.70;99.90
12568;DHT22;6349;50.904;6.136;2023-05-10T02:18:41;13.70;99.90
12568;DHT22;6349;50.904;6.136;2023-05-10T02:20:44;13.60;99.90
12568;DHT22;6349;50.904;6.136;2023-05-10T02:22:47;13.70;99.90
12568;DHT22;6349;50.904;6.136;2023-05-10T02:24:49;13.60;99.90
12568;DHT22;6349;50.904;6.136;2023-05-10T02:26:53;13.70;99.90
12568;DHT22;6349;50.904;6.136;2023-05-10T02:28:57;13.70;99.90
12568;DHT22;6349;50.904;6.136;2023-05-10T02:30:59;13.70;99.90
12568;DHT22;6349;50.904;6.136;2023-05-10T02:33:04;13.70;99.90
12568;DHT22;6349;50.904;6.136;2023-05-10T02:35:05;13.60;99.90
12568;DHT22;6349;50.904;6.136;2023-05-10T02:37:07;13.60;99.90
12568;DHT22;6349;50.904;6.136;2023-05-10T02:39:09;13.60;99.90
12568;DHT22;6349;50.904;6.136;2023-05-10T02:41:14;13.60;99.90
12568;DHT22;6349;50.904;6.136;2023-05-10T02:43:16;13.60;99.90
12568;DHT22;6349;50.904;6.136;2023-05-10T02:45:20;13.60;99.90
12568;DHT22;6349;50.904;6.136;2023-05-10T02:47:23;13.50;99.90
12568;DHT22;6349;50.904;6.136;2023-05-10T02:49:25;13.50;99.90
12568;DHT22;6349;50.904;6.136;2023-05-10T02:51:30;13.50;99.90
12568;DHT22;6349;50.904;6.136;2023-05-10T02:53:38;13.50;99.90
12568;DHT22;6349;50.904;6.136;2023-05-10T02:55:45;13.50;99.90
12568;DHT22;6349;50.904;6.136;2023-05-10T02:57:57;13.50;99.90
12568;DHT22;6349;50.904;6.136;2023-05-10T02:59:58;13.50;99.90
12568;DHT22;6349;50.904;6.136;2023-05-10T03:02:02;13.50;99.90
12568;DHT22;6349;50.904;6.136;2023-05-10T03:04:03;13.50;99.90
12568;DHT22;6349;50.904;6.136;2023-05-10T03:06:04;13.50;99.90
12568;DHT22;6349;50.904;6.136;2023-05-10T03:08:05;13.50;99.90
12568;DHT22;6349;50.904;6.136;2023-05-10T03:10:06;13.40;99.90
12568;DHT22;6349;50.904;6.136;2023-05-10T03:12:15;13.40;99.90
12568;DHT22;6349;50.904;6.136;2023-05-10T03:16:46;13.40;99.90
12568;DHT22;6349;50.904;6.136;2023-05-10T03:19:01;13.40;99.90
12568;DHT22;6349;50.904;6.136;2023-05-10T03:21:04;13.40;99.90
12568;DHT22;6349;50.904;6.136;2023-05-10T03:23:13;13.30;99.90
12568;DHT22;6349;50.904;6.136;2023-05-10T03:25:21;13.30;99.90
12568;DHT22;6349;50.904;6.136;2023-05-10T03:27:23;13.30;99.90
12568;DHT22;6349;50.904;6.136;2023-05-10T03:29:25;13.30;99.90
12568;DHT22;6349;50.904;6.136;2023-05-10T03:31:27;13.30;99.90
12568;DHT22;6349;50.904;6.136;2023-05-10T03:33:28;13.40;99.90
12568;DHT22;6349;50.904;6.136;2023-05-10T03:35:29;13.30;99.90
12568;DHT22;6349;50.904;6.136;2023-05-10T03:37:30;13.30;99.90
12568;DHT22;6349;50.904;6.136;2023-05-10T03:39:30;13.20;99.90
12568;DHT22;6349;50.904;6.136;2023-05-10T03:41:31;13.20;99.90
12568;DHT22;6349;50.904;6.136;2023-05-10T03:43:31;13.20;99.90
12568;DHT22;6349;50.904;6.136;2023-05-10T03:45:32;13.20;99.90
12568;DHT22;6349;50.904;6.136;2023-05-10T03:47:32;13.20;99.90
12568;DHT22;6349;50.904;6.136;2023-05-10T03:49:33;13.20;99.90
12568;DHT22;6349;50.904;6.136;2023-05-10T03:51:34;13.20;99.90
12568;DHT22;6349;50.904;6.136;2023-05-10T03:53:34;13.20;99.90
12568;DHT22;6349;50.904;6.136;2023-05-10T03:55:37;13.20;99.90
12568;DHT22;6349;50.904;6.136;2023-05-10T03:57:37;13.20;99.90
12568;DHT22;6349;50.904;6.136;2023-05-10T03:59:39;13.20;99.90
12568;DHT22;6349;50.904;6.136;2023-05-10T04:01:40;13.20;99.90
12568;DHT22;6349;50.904;6.136;2023-05-10T04:03:40;13.20;99.90
12568;DHT22;6349;50.904;6.136;2023-05-10T04:05:42;13.20;99.90
12568;DHT22;6349;50.904;6.136;2023-05-10T04:07:44;13.20;99.90
12568;DHT22;6349;50.904;6.136;2023-05-10T04:09:46;13.20;99.90
12568;DHT22;6349;50.904;6.136;2023-05-10T04:11:48;13.20;99.90
12568;DHT22;6349;50.904;6.136;2023-05-10T04:13:50;13.20;99.90
12568;DHT22;6349;50.904;6.136;2023-05-10T04:15:52;13.30;99.90
12568;DHT22;6349;50.904;6.136;2023-05-10T04:17:52;13.20;99.90
12568;DHT22;6349;50.904;6.136;2023-05-10T04:19:54;13.20;99.90
12568;DHT22;6349;50.904;6.136;2023-05-10T04:21:55;13.20;99.90
12568;DHT22;6349;50.904;6.136;2023-05-10T04:23:55;13.20;99.90
12568;DHT22;6349;50.904;6.136;2023-05-10T04:26:00;13.20;99.90
12568;DHT22;6349;50.904;6.136;2023-05-10T04:28:01;13.10;99.90
12568;DHT22;6349;50.904;6.136;2023-05-10T04:30:02;13.20;99.90
12568;DHT22;6349;50.904;6.136;2023-05-10T04:32:04;13.20;99.90
12568;DHT22;6349;50.904;6.136;2023-05-10T04:34:05;13.20;99.90
12568;DHT22;6349;50.904;6.136;2023-05-10T04:36:06;13.10;99.90
12568;DHT22;6349;50.904;6.136;2023-05-10T04:38:07;13.10;99.90
12568;DHT22;6349;50.904;6.136;2023-05-10T04:40:09;13.10;99.90
12568;DHT22;6349;50.904;6.136;2023-05-10T04:42:10;13.10;99.90
12568;DHT22;6349;50.904;6.136;2023-05-10T04:44:11;13.10;99.90
12568;DHT22;6349;50.904;6.136;2023-05-10T04:46:12;13.10;99.90
12568;DHT22;6349;50.904;6.136;2023-05-10T04:48:12;13.10;99.90
12568;DHT22;6349;50.904;6.136;2023-05-10T04:50:13;13.10;99.90
12568;DHT22;6349;50.904;6.136;2023-05-10T04:52:13;13.10;99.90
12568;DHT22;6349;50.904;6.136;2023-05-10T04:54:15;13.10;99.90
12568;DHT22;6349;50.904;6.136;2023-05-10T04:56:15;13.10;99.90
12568;DHT22;6349;50.904;6.136;2023-05-10T04:58:16;13.10;99.90
12568;DHT22;6349;50.904;6.136;2023-05-10T05:00:17;13.20;99.90
12568;DHT22;6349;50.904;6.136;2023-05-10T05:02:18;13.10;99.90
12568;DHT22;6349;50.904;6.136;2023-05-10T05:04:19;13.10;99.90
12568;DHT22;6349;50.904;6.136;2023-05-10T05:06:21;13.10;99.90
12568;DHT22;6349;50.904;6.136;2023-05-10T05:08:22;13.10;99.90
12568;DHT22;6349;50.904;6.136;2023-05-10T05:10:28;13.20;99.90
12568;DHT22;6349;50.904;6.136;2023-05-10T05:12:30;13.20;99.90
12568;DHT22;6349;50.904;6.136;2023-05-10T05:14:30;13.20;99.90
12568;DHT22;6349;50.904;6.136;2023-05-10T05:16:31;13.20;99.90
12568;DHT22;6349;50.904;6.136;2023-05-10T05:18:32;13.20;99.90
12568;DHT22;6349;50.904;6.136;2023-05-10T05:20:33;13.20;99.90
12568;DHT22;6349;50.904;6.136;2023-05-10T05:22:36;13.20;99.90
12568;DHT22;6349;50.904;6.136;2023-05-10T05:24:37;13.20;99.90
12568;DHT22;6349;50.904;6.136;2023-05-10T05:26:38;13.20;99.90
12568;DHT22;6349;50.904;6.136;2023-05-10T05:28:39;13.20;99.90
12568;DHT22;6349;50.904;6.136;2023-05-10T05:30:39;13.20;99.90
12568;DHT22;6349;50.904;6.136;2023-05-10T05:32:40;13.20;99.90
12568;DHT22;6349;50.904;6.136;2023-05-10T05:34:43;13.20;99.90
12568;DHT22;6349;50.904;6.136;2023-05-10T05:36:44;13.20;99.90
12568;DHT22;6349;50.904;6.136;2023-05-10T05:38:45;13.20;99.90
12568;DHT22;6349;50.904;6.136;2023-05-10T05:40:46;13.20;99.90
12568;DHT22;6349;50.904;6.136;2023-05-10T05:42:48;13.30;99.90
12568;DHT22;6349;50.904;6.136;2023-05-10T05:44:49;13.30;99.90
12568;DHT22;6349;50.904;6.136;2023-05-10T05:46:50;13.30;99.90
12568;DHT22;6349;50.904;6.136;2023-05-10T05:48:50;13.30;99.90
12568;DHT22;6349;50.904;6.136;2023-05-10T05:50:54;13.30;99.90
12568;DHT22;6349;50.904;6.136;2023-05-10T05:52:55;13.40;99.90
12568;DHT22;6349;50.904;6.136;2023-05-10T05:54:57;13.40;99.90
12568;DHT22;6349;50.904;6.136;2023-05-10T05:56:59;13.40;99.90
12568;DHT22;6349;50.904;6.136;2023-05-10T05:58:59;13.40;99.90
12568;DHT22;6349;50.904;6.136;2023-05-10T06:01:01;13.40;99.90
12568;DHT22;6349;50.904;6.136;2023-05-10T06:03:02;13.50;99.90
12568;DHT22;6349;50.904;6.136;2023-05-10T06:05:05;13.50;99.90
12568;DHT22;6349;50.904;6.136;2023-05-10T06:07:06;13.50;99.90
12568;DHT22;6349;50.904;6.136;2023-05-10T06:09:06;13.50;99.90
12568;DHT22;6349;50.904;6.136;2023-05-10T06:11:08;13.50;99.90
12568;DHT22;6349;50.904;6.136;2023-05-10T06:13:09;13.50;99.90
12568;DHT22;6349;50.904;6.136;2023-05-10T06:15:10;13.40;99.90
12568;DHT22;6349;50.904;6.136;2023-05-10T06:17:11;13.50;99.90
12568;DHT22;6349;50.904;6.136;2023-05-10T06:19:11;13.50;99.90
12568;DHT22;6349;50.904;6.136;2023-05-10T06:21:12;13.50;99.90
12568;DHT22;6349;50.904;6.136;2023-05-10T06:23:13;13.50;99.90
12568;DHT22;6349;50.904;6.136;2023-05-10T06:25:14;13.50;99.90
12568;DHT22;6349;50.904;6.136;2023-05-10T06:27:15;13.50;99.90
12568;DHT22;6349;50.904;6.136;2023-05-10T06:29:16;13.50;99.90
12568;DHT22;6349;50.904;6.136;2023-05-10T06:31:17;13.50;99.90
12568;DHT22;6349;50.904;6.136;2023-05-10T06:33:18;13.50;99.90
12568;DHT22;6349;50.904;6.136;2023-05-10T06:35:19;13.50;99.90
12568;DHT22;6349;50.904;6.136;2023-05-10T06:37:19;13.60;99.90
12568;DHT22;6349;50.904;6.136;2023-05-10T06:39:21;13.60;99.90
12568;DHT22;6349;50.904;6.136;2023-05-10T06:41:23;13.60;99.90
12568;DHT22;6349;50.904;6.136;2023-05-10T06:43:24;13.60;99.90
12568;DHT22;6349;50.904;6.136;2023-05-10T06:45:26;13.70;99.90
12568;DHT22;6349;50.904;6.136;2023-05-10T06:47:27;13.70;99.90
12568;DHT22;6349;50.904;6.136;2023-05-10T06:49:27;13.70;99.90
12568;DHT22;6349;50.904;6.136;2023-05-10T06:51:28;13.70;99.90
12568;DHT22;6349;50.904;6.136;2023-05-10T06:53:28;13.70;99.90
12568;DHT22;6349;50.904;6.136;2023-05-10T06:55:30;13.80;99.90
12568;DHT22;6349;50.904;6.136;2023-05-10T06:57:32;13.70;99.90
12568;DHT22;6349;50.904;6.136;2023-05-10T06:59:33;13.70;99.90
12568;DHT22;6349;50.904;6.136;2023-05-10T07:01:35;13.70;99.90
12568;DHT22;6349;50.904;6.136;2023-05-10T07:03:35;13.70;99.90
12568;DHT22;6349;50.904;6.136;2023-05-10T07:05:38;13.60;99.90
12568;DHT22;6349;50.904;6.136;2023-05-10T07:07:39;13.70;99.90
12568;DHT22;6349;50.904;6.136;2023-05-10T07:09:40;13.70;99.90
12568;DHT22;6349;50.904;6.136;2023-05-10T07:11:42;13.60;99.90
12568;DHT22;6349;50.904;6.136;2023-05-10T07:13:43;13.70;99.90
12568;DHT22;6349;50.904;6.136;2023-05-10T07:15:44;13.60;99.90
12568;DHT22;6349;50.904;6.136;2023-05-10T07:17:45;13.70;99.90
12568;DHT22;6349;50.904;6.136;2023-05-10T07:19:45;13.60;99.90
12568;DHT22;6349;50.904;6.136;2023-05-10T07:21:46;13.60;99.90
12568;DHT22;6349;50.904;6.136;2023-05-10T07:23:47;13.60;99.90
12568;DHT22;6349;50.904;6.136;2023-05-10T07:25:49;13.60;99.90
12568;DHT22;6349;50.904;6.136;2023-05-10T07:27:51;13.60;99.90
12568;DHT22;6349;50.904;6.136;2023-05-10T07:29:52;13.60;99.90
12568;DHT22;6349;50.904;6.136;2023-05-10T07:31:53;13.60;99.90
12568;DHT22;6349;50.904;6.136;2023-05-10T07:33:53;13.50;99.90
12568;DHT22;6349;50.904;6.136;2023-05-10T07:35:55;13.50;99.90
12568;DHT22;6349;50.904;6.136;2023-05-10T07:37:56;13.50;99.90
12568;DHT22;6349;50.904;6.136;2023-05-10T07:39:56;13.40;99.90
12568;DHT22;6349;50.904;6.136;2023-05-10T07:41:57;13.40;99.90
12568;DHT22;6349;50.904;6.136;2023-05-10T07:43:58;13.40;99.90
12568;DHT22;6349;50.904;6.136;2023-05-10T07:45:58;13.50;99.90
12568;DHT22;6349;50.904;6.136;2023-05-10T07:48:00;13.40;99.90
12568;DHT22;6349;50.904;6.136;2023-05-10T07:50:00;13.30;99.90
12568;DHT22;6349;50.904;6.136;2023-05-10T07:52:03;13.30;99.90
12568;DHT22;6349;50.904;6.136;2023-05-10T07:54:03;13.30;99.90
12568;DHT22;6349;50.904;6.136;2023-05-10T07:56:27;13.30;99.90
12568;DHT22;6349;50.904;6.136;2023-05-10T07:58:29;13.30;99.90
12568;DHT22;6349;50.904;6.136;2023-05-10T08:00:30;13.30;99.90
12568;DHT22;6349;50.904;6.136;2023-05-10T08:02:31;13.40;99.90
12568;DHT22;6349;50.904;6.136;2023-05-10T08:04:32;13.40;99.90
12568;DHT22;6349;50.904;6.136;2023-05-10T08:06:33;13.40;99.90
12568;DHT22;6349;50.904;6.136;2023-05-10T08:08:33;13.40;99.90
12568;DHT22;6349;50.904;6.136;2023-05-10T08:10:34;13.40;99.90
12568;DHT22;6349;50.904;6.136;2023-05-10T08:12:35;13.40;99.90
12568;DHT22;6349;50.904;6.136;2023-05-10T08:14:35;13.50;99.90
12568;DHT22;6349;50.904;6.136;2023-05-10T08:16:38;13.50;99.90
12568;DHT22;6349;50.904;6.136;2023-05-10T08:18:39;13.50;99.90
12568;DHT22;6349;50.904;6.136;2023-05-10T08:20:40;13.50;99.90
12568;DHT22;6349;50.904;6.136;2023-05-10T08:22:41;13.50;99.90
12568;DHT22;6349;50.904;6.136;2023-05-10T08:24:41;13.50;99.90
12568;DHT22;6349;50.904;6.136;2023-05-10T08:26:43;13.60;99.90
12568;DHT22;6349;50.904;6.136;2023-05-10T08:28:44;13.60;99.90
12568;DHT22;6349;50.904;6.136;2023-05-10T08:30:45;13.60;99.90
12568;DHT22;6349;50.904;6.136;2023-05-10T08:32:45;13.60;99.90
12568;DHT22;6349;50.904;6.136;2023-05-10T08:34:47;13.70;99.90
12568;DHT22;6349;50.904;6.136;2023-05-10T08:36:48;13.70;99.90
12568;DHT22;6349;50.904;6.136;2023-05-10T08:38:51;13.70;99.90
12568;DHT22;6349;50.904;6.136;2023-05-10T08:40:54;13.70;99.90
12568;DHT22;6349;50.904;6.136;2023-05-10T08:43:06;13.70;99.90
12568;DHT22;6349;50.904;6.136;2023-05-10T08:45:10;13.70;99.90
12568;DHT22;6349;50.904;6.136;2023-05-10T08:47:13;13.70;99.90
12568;DHT22;6349;50.904;6.136;2023-05-10T08:49:17;13.70;99.90
12568;DHT22;6349;50.904;6.136;2023-05-10T08:51:23;13.70;99.90
12568;DHT22;6349;50.904;6.136;2023-05-10T08:53:27;13.70;99.90
12568;DHT22;6349;50.904;6.136;2023-05-10T08:55:32;13.80;99.90
12568;DHT22;6349;50.904;6.136;2023-05-10T08:57:33;13.80;99.90
12568;DHT22;6349;50.904;6.136;2023-05-10T08:59:35;13.70;99.90
12568;DHT22;6349;50.904;6.136;2023-05-10T09:01:36;13.70;99.90
12568;DHT22;6349;50.904;6.136;2023-05-10T09:03:39;13.60;99.90
12568;DHT22;6349;50.904;6.136;2023-05-10T09:05:40;13.60;99.90
12568;DHT22;6349;50.904;6.136;2023-05-10T09:07:42;13.60;99.90
12568;DHT22;6349;50.904;6.136;2023-05-10T09:09:43;13.60;99.90
12568;DHT22;6349;50.904;6.136;2023-05-10T09:11:45;13.60;99.90
12568;DHT22;6349;50.904;6.136;2023-05-10T09:13:48;13.70;99.90
12568;DHT22;6349;50.904;6.136;2023-05-10T09:15:51;13.70;99.90
12568;DHT22;6349;50.904;6.136;2023-05-10T09:17:52;13.70;99.90
12568;DHT22;6349;50.904;6.136;2023-05-10T09:19:59;13.70;99.90
12568;DHT22;6349;50.904;6.136;2023-05-10T09:22:02;13.70;99.90
12568;DHT22;6349;50.904;6.136;2023-05-10T09:24:06;13.70;99.90
12568;DHT22;6349;50.904;6.136;2023-05-10T09:26:07;13.80;99.90
12568;DHT22;6349;50.904;6.136;2023-05-10T09:28:09;13.80;99.90
12568;DHT22;6349;50.904;6.136;2023-05-10T09:30:10;13.70;99.90
12568;DHT22;6349;50.904;6.136;2023-05-10T09:32:12;13.70;99.90
12568;DHT22;6349;50.904;6.136;2023-05-10T09:34:17;13.70;99.90
12568;DHT22;6349;50.904;6.136;2023-05-10T09:36:18;13.70;99.90
12568;DHT22;6349;50.904;6.136;2023-05-10T09:38:19;13.80;99.90
12568;DHT22;6349;50.904;6.136;2023-05-10T09:40:22;13.80;99.90
12568;DHT22;6349;50.904;6.136;2023-05-10T09:42:23;13.80;99.90
12568;DHT22;6349;50.904;6.136;2023-05-10T09:44:25;13.90;99.90
12568;DHT22;6349;50.904;6.136;2023-05-10T09:46:26;13.80;99.90
12568;DHT22;6349;50.904;6.136;2023-05-10T09:48:27;13.90;99.90
12568;DHT22;6349;50.904;6.136;2023-05-10T09:50:28;13.90;99.90
12568;DHT22;6349;50.904;6.136;2023-05-10T09:52:29;14.00;99.90
12568;DHT22;6349;50.904;6.136;2023-05-10T09:54:30;14.00;99.90
12568;DHT22;6349;50.904;6.136;2023-05-10T09:56:34;14.10;99.90
12568;DHT22;6349;50.904;6.136;2023-05-10T09:58:40;14.20;99.90
12568;DHT22;6349;50.904;6.136;2023-05-10T10:00:46;14.30;99.90
12568;DHT22;6349;50.904;6.136;2023-05-10T10:02:58;14.40;99.90
12568;DHT22;6349;50.904;6.136;2023-05-10T10:05:01;14.40;99.90
12568;DHT22;6349;50.904;6.136;2023-05-10T10:07:05;14.40;99.90
12568;DHT22;6349;50.904;6.136;2023-05-10T10:09:08;14.40;99.90
12568;DHT22;6349;50.904;6.136;2023-05-10T10:11:09;14.40;99.90
12568;DHT22;6349;50.904;6.136;2023-05-10T10:13:10;14.50;99.90
12568;DHT22;6349;50.904;6.136;2023-05-10T10:15:11;14.40;99.90
12568;DHT22;6349;50.904;6.136;2023-05-10T10:17:12;14.40;99.90
12568;DHT22;6349;50.904;6.136;2023-05-10T10:19:13;14.40;99.90
12568;DHT22;6349;50.904;6.136;2023-05-10T10:21:15;14.40;99.90
12568;DHT22;6349;50.904;6.136;2023-05-10T10:23:15;14.40;99.90
12568;DHT22;6349;50.904;6.136;2023-05-10T10:25:19;14.40;99.90
12568;DHT22;6349;50.904;6.136;2023-05-10T10:27:26;14.40;99.90
12568;DHT22;6349;50.904;6.136;2023-05-10T10:29:39;14.40;99.90
12568;DHT22;6349;50.904;6.136;2023-05-10T10:34:28;14.50;99.90
12568;DHT22;6349;50.904;6.136;2023-05-10T10:36:31;14.50;99.90
12568;DHT22;6349;50.904;6.136;2023-05-10T10:40:47;14.40;99.90
12568;DHT22;6349;50.904;6.136;2023-05-10T10:42:48;14.40;99.90
12568;DHT22;6349;50.904;6.136;2023-05-10T10:45:13;14.40;99.90
12568;DHT22;6349;50.904;6.136;2023-05-10T10:49:24;14.40;99.90
12568;DHT22;6349;50.904;6.136;2023-05-10T10:51:28;14.40;99.90
12568;DHT22;6349;50.904;6.136;2023-05-10T10:53:29;14.40;99.90
12568;DHT22;6349;50.904;6.136;2023-05-10T10:55:31;14.50;99.90
12568;DHT22;6349;50.904;6.136;2023-05-10T10:57:53;14.60;99.90
12568;DHT22;6349;50.904;6.136;2023-05-10T11:02:34;14.70;99.90
12568;DHT22;6349;50.904;6.136;2023-05-10T11:04:43;14.80;99.90
12568;DHT22;6349;50.904;6.136;2023-05-10T11:06:46;14.80;99.90
12568;DHT22;6349;50.904;6.136;2023-05-10T11:08:47;14.90;99.90
12568;DHT22;6349;50.904;6.136;2023-05-10T11:11:05;15.00;99.90
12568;DHT22;6349;50.904;6.136;2023-05-10T11:13:12;15.00;99.90
12568;DHT22;6349;50.904;6.136;2023-05-10T11:15:12;15.00;99.90
12568;DHT22;6349;50.904;6.136;2023-05-10T11:17:27;15.00;99.90
12568;DHT22;6349;50.904;6.136;2023-05-10T11:19:29;15.00;99.90
12568;DHT22;6349;50.904;6.136;2023-05-10T11:21:30;15.10;99.90
12568;DHT22;6349;50.904;6.136;2023-05-10T11:25:49;15.20;99.90
12568;DHT22;6349;50.904;6.136;2023-05-10T11:27:50;15.30;99.90
12568;DHT22;6349;50.904;6.136;2023-05-10T11:29:51;15.40;99.90
12568;DHT22;6349;50.904;6.136;2023-05-10T11:31:57;15.40;99.90
12568;DHT22;6349;50.904;6.136;2023-05-10T11:33:59;15.30;99.90
12568;DHT22;6349;50.904;6.136;2023-05-10T11:36:00;15.30;99.90
12568;DHT22;6349;50.904;6.136;2023-05-10T11:38:01;15.30;99.90
12568;DHT22;6349;50.904;6.136;2023-05-10T11:40:04;15.40;99.90
12568;DHT22;6349;50.904;6.136;2023-05-10T11:42:04;15.50;99.90
12568;DHT22;6349;50.904;6.136;2023-05-10T11:44:05;15.60;99.90
12568;DHT22;6349;50.904;6.136;2023-05-10T11:46:11;15.70;99.90
12568;DHT22;6349;50.904;6.136;2023-05-10T11:48:12;15.70;99.90
12568;DHT22;6349;50.904;6.136;2023-05-10T11:50:14;15.70;99.90
12568;DHT22;6349;50.904;6.136;2023-05-10T11:52:14;15.80;99.90
12568;DHT22;6349;50.904;6.136;2023-05-10T11:54:15;15.70;99.90
12568;DHT22;6349;50.904;6.136;2023-05-10T11:56:16;15.70;99.90
12568;DHT22;6349;50.904;6.136;2023-05-10T11:58:18;15.70;99.90
12568;DHT22;6349;50.904;6.136;2023-05-10T12:00:18;15.80;99.90
12568;DHT22;6349;50.904;6.136;2023-05-10T12:02:20;15.90;99.90
12568;DHT22;6349;50.904;6.136;2023-05-10T12:04:21;15.90;99.90
12568;DHT22;6349;50.904;6.136;2023-05-10T12:06:22;15.90;99.90
12568;DHT22;6349;50.904;6.136;2023-05-10T12:08:25;16.10;99.90
12568;DHT22;6349;50.904;6.136;2023-05-10T12:10:27;16.00;99.90
12568;DHT22;6349;50.904;6.136;2023-05-10T12:12:36;16.00;99.90
12568;DHT22;6349;50.904;6.136;2023-05-10T12:14:37;16.00;99.90
12568;DHT22;6349;50.904;6.136;2023-05-10T12:16:37;16.00;99.90
12568;DHT22;6349;50.904;6.136;2023-05-10T12:18:40;16.00;99.90
12568;DHT22;6349;50.904;6.136;2023-05-10T12:20:41;16.10;99.90
12568;DHT22;6349;50.904;6.136;2023-05-10T12:22:46;16.10;99.90
12568;DHT22;6349;50.904;6.136;2023-05-10T12:24:46;16.20;99.90
12568;DHT22;6349;50.904;6.136;2023-05-10T12:26:47;16.30;99.90
12568;DHT22;6349;50.904;6.136;2023-05-10T12:28:48;16.40;99.90
12568;DHT22;6349;50.904;6.136;2023-05-10T12:30:53;16.40;99.90
12568;DHT22;6349;50.904;6.136;2023-05-10T12:33:02;16.50;99.90
12568;DHT22;6349;50.904;6.136;2023-05-10T12:35:08;16.60;99.90
12568;DHT22;6349;50.904;6.136;2023-05-10T12:37:10;16.70;99.90
12568;DHT22;6349;50.904;6.136;2023-05-10T12:39:10;16.80;99.90
12568;DHT22;6349;50.904;6.136;2023-05-10T12:41:15;16.70;99.90
12568;DHT22;6349;50.904;6.136;2023-05-10T12:43:16;16.80;99.90
12568;DHT22;6349;50.904;6.136;2023-05-10T12:45:17;16.90;99.90
12568;DHT22;6349;50.904;6.136;2023-05-10T12:47:18;16.90;99.90
12568;DHT22;6349;50.904;6.136;2023-05-10T12:49:19;17.00;99.90
12568;DHT22;6349;50.904;6.136;2023-05-10T12:51:19;17.20;99.90
12568;DHT22;6349;50.904;6.136;2023-05-10T12:53:22;17.20;99.90
12568;DHT22;6349;50.904;6.136;2023-05-10T12:55:22;17.20;99.90
12568;DHT22;6349;50.904;6.136;2023-05-10T12:57:23;17.20;99.90
12568;DHT22;6349;50.904;6.136;2023-05-10T12:59:23;17.20;99.90
12568;DHT22;6349;50.904;6.136;2023-05-10T13:01:24;17.20;99.90
12568;DHT22;6349;50.904;6.136;2023-05-10T13:03:25;17.30;99.90
12568;DHT22;6349;50.904;6.136;2023-05-10T13:05:27;17.30;99.90
12568;DHT22;6349;50.904;6.136;2023-05-10T13:07:27;17.40;99.90
12568;DHT22;6349;50.904;6.136;2023-05-10T13:09:28;17.40;99.90
12568;DHT22;6349;50.904;6.136;2023-05-10T13:11:31;17.40;99.90
12568;DHT22;6349;50.904;6.136;2023-05-10T13:13:31;17.50;99.90
12568;DHT22;6349;50.904;6.136;2023-05-10T13:15:32;17.40;99.90
12568;DHT22;6349;50.904;6.136;2023-05-10T13:17:32;17.30;99.90
12568;DHT22;6349;50.904;6.136;2023-05-10T13:19:33;17.40;99.90
12568;DHT22;6349;50.904;6.136;2023-05-10T13:21:34;17.50;99.90
12568;DHT22;6349;50.904;6.136;2023-05-10T13:23:34;17.40;99.90
12568;DHT22;6349;50.904;6.136;2023-05-10T13:25:35;17.30;99.90
12568;DHT22;6349;50.904;6.136;2023-05-10T13:27:36;17.30;99.90
12568;DHT22;6349;50.904;6.136;2023-05-10T13:29:37;17.30;99.90
12568;DHT22;6349;50.904;6.136;2023-05-10T13:31:37;17.30;99.90
12568;DHT22;6349;50.904;6.136;2023-05-10T13:33:39;17.20;99.90